createdAt,value
2017-09-28T00:00:50.983Z,87.3
2017-09-28T00:01:52.733Z,87.3
2017-09-28T00:02:54.451Z,87.1
2017-09-28T00:03:56.158Z,87.5
2017-09-28T00:04:58.412Z,87.0
2017-09-28T00:06:00.094Z,86.6
2017-09-28T00:07:02.418Z,87.3
2017-09-28T00:08:04.157Z,87.1
2017-09-28T00:09:06.438Z,87.3
2017-09-28T00:10:08.169Z,87.1
2017-09-28T00:11:10.916Z,87.2
2017-09-28T00:12:12.593Z,87.2
2017-09-28T00:13:14.420Z,87.3
2017-09-28T00:14:16.134Z,87.5
2017-09-28T00:15:17.830Z,87.3
2017-09-28T00:16:19.555Z,87.3
2017-09-28T00:17:21.271Z,87.2
2017-09-28T00:18:22.998Z,86.8
2017-09-28T00:19:24.709Z,87.3
2017-09-28T00:20:26.449Z,87.5
2017-09-28T00:21:28.179Z,87.5
2017-09-28T00:22:29.889Z,87.3
2017-09-28T00:23:32.429Z,87.3
2017-09-28T00:24:34.178Z,87.6
2017-09-28T00:25:36.892Z,87.5
2017-09-28T00:26:38.578Z,88.1
2017-09-28T00:27:40.337Z,87.9
2017-09-28T00:28:42.922Z,88.5
2017-09-28T00:29:45.440Z,88.2
2017-09-28T00:30:47.322Z,88.7
2017-09-28T00:31:49.018Z,88.8
2017-09-28T00:32:50.721Z,88.9
2017-09-28T00:33:52.919Z,89.9
2017-09-28T00:34:54.668Z,89.6
2017-09-28T00:35:56.420Z,89.7
2017-09-28T00:36:58.932Z,89.8
2017-09-28T00:38:00.708Z,89.8
2017-09-28T00:39:02.410Z,89.7
2017-09-28T00:40:04.083Z,90.2
2017-09-28T00:41:05.788Z,89.6
2017-09-28T00:42:07.694Z,90.2
2017-09-28T00:43:09.384Z,89.8
2017-09-28T00:44:11.146Z,90.1
2017-09-28T00:45:12.867Z,90.0
2017-09-28T00:46:14.580Z,90.3
2017-09-28T00:47:16.307Z,90.5
2017-09-28T00:48:18.011Z,89.8
2017-09-28T00:49:19.694Z,90.1
2017-09-28T00:50:21.662Z,90.0
2017-09-28T00:51:23.341Z,89.7
2017-09-28T00:52:25.051Z,89.8
2017-09-28T00:53:26.779Z,89.6
2017-09-28T00:54:28.446Z,89.6
2017-09-28T00:55:30.164Z,89.8
2017-09-28T00:56:31.853Z,89.9
2017-09-28T00:57:33.605Z,89.6
2017-09-28T00:58:35.365Z,89.9
2017-09-28T00:59:37.043Z,89.9
2017-09-28T01:00:38.736Z,89.9
2017-09-28T01:01:40.446Z,89.5
2017-09-28T01:02:42.126Z,89.6
2017-09-28T01:03:43.875Z,89.7
2017-09-28T01:04:45.617Z,89.9
2017-09-28T01:05:47.311Z,89.1
2017-09-28T01:06:49.041Z,89.1
2017-09-28T01:07:50.738Z,88.8
2017-09-28T01:08:52.422Z,88.2
2017-09-28T01:09:54.186Z,88.5
2017-09-28T01:10:55.903Z,88.3
2017-09-28T01:11:57.630Z,88.7
2017-09-28T01:12:59.332Z,89.3
2017-09-28T01:14:01.023Z,89.7
2017-09-28T01:15:02.739Z,89.5
2017-09-28T01:16:04.446Z,89.5
2017-09-28T01:17:06.139Z,89.9
2017-09-28T01:18:07.873Z,90.8
2017-09-28T01:19:09.594Z,90.6
2017-09-28T01:20:11.327Z,90.1
2017-09-28T01:21:13.966Z,90.4
2017-09-28T01:22:15.689Z,91.2
2017-09-28T01:23:17.433Z,90.9
2017-09-28T01:24:19.133Z,91.0
2017-09-28T01:25:20.860Z,91.3
2017-09-28T01:26:22.552Z,91.2
2017-09-28T01:27:24.246Z,91.3
2017-09-28T01:28:26.013Z,91.4
2017-09-28T01:29:27.691Z,91.3
2017-09-28T01:30:29.415Z,91.6
2017-09-28T01:31:31.124Z,91.3
2017-09-28T01:32:32.857Z,91.2
2017-09-28T01:33:34.574Z,91.4
2017-09-28T01:34:36.300Z,91.6
2017-09-28T01:35:38.017Z,91.3
2017-09-28T01:36:39.722Z,91.0
2017-09-28T01:37:41.412Z,91.3
2017-09-28T01:38:43.150Z,91.3
2017-09-28T01:39:45.482Z,91.1
2017-09-28T01:40:47.227Z,91.6
2017-09-28T01:41:48.950Z,91.3
2017-09-28T01:42:50.665Z,91.7
2017-09-28T01:43:52.409Z,91.4
2017-09-28T01:44:54.175Z,91.3
2017-09-28T01:45:55.897Z,91.2
2017-09-28T01:46:57.620Z,91.2
2017-09-28T01:47:59.293Z,91.2
2017-09-28T01:49:02.003Z,91.4
2017-09-28T01:50:03.728Z,91.4
2017-09-28T01:51:05.968Z,91.0
2017-09-28T01:52:07.672Z,90.7
2017-09-28T01:53:09.431Z,90.6
2017-09-28T01:54:11.147Z,90.2
2017-09-28T01:55:12.918Z,90.6
2017-09-28T01:56:14.604Z,90.7
2017-09-28T01:57:16.292Z,90.9
2017-09-28T01:58:18.026Z,90.8
2017-09-28T01:59:19.750Z,91.3
2017-09-28T02:00:21.493Z,91.1
2017-09-28T02:01:23.189Z,91.2
2017-09-28T02:02:24.951Z,91.1
2017-09-28T02:03:26.673Z,91.3
2017-09-28T02:04:28.435Z,92.1
2017-09-28T02:05:30.148Z,91.0
2017-09-28T02:06:31.845Z,91.4
2017-09-28T02:07:33.566Z,92.2
2017-09-28T02:08:35.315Z,91.4
2017-09-28T02:09:36.981Z,91.3
2017-09-28T02:10:39.493Z,91.0
2017-09-28T02:11:41.215Z,91.3
2017-09-28T02:12:42.901Z,91.5
2017-09-28T02:13:45.472Z,91.7
2017-09-28T02:14:47.176Z,92.0
2017-09-28T02:15:48.896Z,91.6
2017-09-28T02:16:50.622Z,91.8
2017-09-28T02:17:52.336Z,91.8
2017-09-28T02:18:54.075Z,91.9
2017-09-28T02:19:55.822Z,91.8
2017-09-28T02:20:57.537Z,91.1
2017-09-28T02:21:59.241Z,91.2
2017-09-28T02:23:00.919Z,91.2
2017-09-28T02:24:02.650Z,91.2
2017-09-28T02:25:04.346Z,91.0
2017-09-28T02:26:06.064Z,91.1
2017-09-28T02:27:07.780Z,91.3
2017-09-28T02:28:10.485Z,91.2
2017-09-28T02:29:12.975Z,91.0
2017-09-28T02:30:14.650Z,92.0
2017-09-28T02:31:16.358Z,91.5
2017-09-28T02:32:18.986Z,91.6
2017-09-28T02:33:20.686Z,91.4
2017-09-28T02:34:22.419Z,91.4
2017-09-28T02:35:24.130Z,91.5
2017-09-28T02:36:25.857Z,91.3
2017-09-28T02:37:27.592Z,91.4
2017-09-28T02:38:29.292Z,90.9
2017-09-28T02:39:31.004Z,90.6
2017-09-28T02:40:32.802Z,91.1
2017-09-28T02:41:35.006Z,91.1
2017-09-28T02:42:36.728Z,91.3
2017-09-28T02:43:39.011Z,91.3
2017-09-28T02:44:41.526Z,91.3
2017-09-28T02:45:43.995Z,91.2
2017-09-28T02:46:45.724Z,91.3
2017-09-28T02:47:47.458Z,91.3
2017-09-28T02:48:49.195Z,92.2
2017-09-28T02:49:50.929Z,91.5
2017-09-28T02:50:52.647Z,91.2
2017-09-28T02:51:54.384Z,92.2
2017-09-28T02:52:56.098Z,91.3
2017-09-28T02:53:57.809Z,91.2
2017-09-28T02:54:59.553Z,91.3
2017-09-28T02:56:01.253Z,92.0
2017-09-28T02:57:02.982Z,92.2
2017-09-28T02:58:05.515Z,91.3
2017-09-28T02:59:07.247Z,91.2
2017-09-28T03:00:09.039Z,91.4
2017-09-28T03:01:10.774Z,91.0
2017-09-28T03:02:13.041Z,90.5
2017-09-28T03:03:14.793Z,90.3
2017-09-28T03:04:16.540Z,90.5
2017-09-28T03:05:18.294Z,90.8
2017-09-28T03:06:20.012Z,90.2
2017-09-28T03:07:21.743Z,90.5
2017-09-28T03:08:23.534Z,90.6
2017-09-28T03:09:25.262Z,90.7
2017-09-28T03:10:27.002Z,91.0
2017-09-28T03:11:28.813Z,91.4
2017-09-28T03:12:30.510Z,91.3
2017-09-28T03:13:32.265Z,91.6
2017-09-28T03:14:33.966Z,92.0
2017-09-28T03:15:35.699Z,92.1
2017-09-28T03:16:37.453Z,91.6
2017-09-28T03:17:39.184Z,91.7
2017-09-28T03:18:40.962Z,91.8
2017-09-28T03:19:42.633Z,92.0
2017-09-28T03:20:44.349Z,92.1
2017-09-28T03:21:46.976Z,92.1
2017-09-28T03:22:48.700Z,92.0
2017-09-28T03:23:50.441Z,91.8
2017-09-28T03:24:53.050Z,92.2
2017-09-28T03:25:54.753Z,91.9
2017-09-28T03:26:56.482Z,92.6
2017-09-28T03:27:58.228Z,92.9
2017-09-28T03:28:59.940Z,92.6
2017-09-28T03:30:01.659Z,92.2
2017-09-28T03:31:03.390Z,92.3
2017-09-28T03:32:05.098Z,91.9
2017-09-28T03:33:06.812Z,91.7
2017-09-28T03:34:08.535Z,91.6
2017-09-28T03:35:10.475Z,91.1
2017-09-28T03:36:12.158Z,91.2
2017-09-28T03:37:14.502Z,91.9
2017-09-28T03:38:16.212Z,91.7
2017-09-28T03:39:17.933Z,92.2
2017-09-28T03:40:19.671Z,92.2
2017-09-28T03:41:21.411Z,92.0
2017-09-28T03:42:23.135Z,92.2
2017-09-28T03:43:24.849Z,92.2
2017-09-28T03:44:26.566Z,92.5
2017-09-28T03:45:28.266Z,92.2
2017-09-28T03:46:30.008Z,92.4
2017-09-28T03:47:31.725Z,92.2
2017-09-28T03:48:33.447Z,92.8
2017-09-28T03:49:36.024Z,92.6
2017-09-28T03:50:37.744Z,93.2
2017-09-28T03:51:40.456Z,93.1
2017-09-28T03:52:42.162Z,93.0
2017-09-28T03:53:43.864Z,92.6
2017-09-28T03:54:45.631Z,92.0
2017-09-28T03:55:47.399Z,91.9
2017-09-28T03:56:49.160Z,91.8
2017-09-28T03:57:50.870Z,92.2
2017-09-28T03:58:52.652Z,92.2
2017-09-28T03:59:54.335Z,92.6
2017-09-28T04:00:56.016Z,92.0
2017-09-28T04:01:57.749Z,92.4
2017-09-28T04:02:59.504Z,92.0
2017-09-28T04:04:01.288Z,92.1
2017-09-28T04:05:03.040Z,91.2
2017-09-28T04:06:05.872Z,91.9
2017-09-28T04:07:07.566Z,91.3
2017-09-28T04:08:09.271Z,91.4
2017-09-28T04:09:10.976Z,91.6
2017-09-28T04:10:12.696Z,91.6
2017-09-28T04:11:14.410Z,92.2
2017-09-28T04:12:16.112Z,90.4
2017-09-28T04:13:17.872Z,90.9
2017-09-28T04:14:19.681Z,91.2
2017-09-28T04:15:21.567Z,90.7
2017-09-28T04:16:23.412Z,90.3
2017-09-28T04:17:25.141Z,90.0
2017-09-28T04:18:27.092Z,90.4
2017-09-28T04:19:28.957Z,90.2
2017-09-28T04:20:31.131Z,89.7
2017-09-28T04:21:32.873Z,90.2
2017-09-28T04:22:34.633Z,89.9
2017-09-28T04:23:36.383Z,89.8
2017-09-28T04:24:38.148Z,90.2
2017-09-28T04:25:39.839Z,90.8
2017-09-28T04:26:41.552Z,90.8
2017-09-28T04:27:43.275Z,90.1
2017-09-28T04:28:44.947Z,89.6
2017-09-28T04:29:46.651Z,89.5
2017-09-28T04:30:48.381Z,90.4
2017-09-28T04:31:50.080Z,89.8
2017-09-28T04:32:51.773Z,90.4
2017-09-28T04:33:53.551Z,90.8
2017-09-28T04:34:56.061Z,89.9
2017-09-28T04:35:57.742Z,89.4
2017-09-28T04:37:00.037Z,89.0
2017-09-28T04:38:01.757Z,89.0
2017-09-28T04:39:03.475Z,89.7
2017-09-28T04:40:07.779Z,89.1
2017-09-28T04:41:09.095Z,89.3
2017-09-28T04:42:11.578Z,88.8
2017-09-28T04:43:13.270Z,89.7
2017-09-28T04:44:15.532Z,90.0
2017-09-28T04:45:17.433Z,90.0
2017-09-28T04:46:19.124Z,89.0
2017-09-28T04:47:20.830Z,89.1
2017-09-28T04:48:22.526Z,89.8
2017-09-28T04:49:24.225Z,89.4
2017-09-28T04:50:26.032Z,89.4
2017-09-28T04:51:27.904Z,90.3
2017-09-28T04:52:29.612Z,89.8
2017-09-28T04:53:31.423Z,89.3
2017-09-28T04:54:33.417Z,89.4
2017-09-28T04:55:36.036Z,88.6
2017-09-28T04:56:37.798Z,88.8
2017-09-28T04:57:39.610Z,89.3
2017-09-28T04:58:41.397Z,89.2
2017-09-28T04:59:43.152Z,88.7
2017-09-28T05:00:44.869Z,89.1
2017-09-28T05:01:46.616Z,89.0
2017-09-28T05:02:48.349Z,88.9
2017-09-28T05:03:50.050Z,88.8
2017-09-28T05:04:52.344Z,89.2
2017-09-28T05:05:54.071Z,89.5
2017-09-28T05:06:55.772Z,89.9
2017-09-28T05:07:57.733Z,89.5
2017-09-28T05:08:59.614Z,89.8
2017-09-28T05:10:01.326Z,89.9
2017-09-28T05:11:03.601Z,90.1
2017-09-28T05:12:05.265Z,89.0
2017-09-28T05:13:06.985Z,89.3
2017-09-28T05:14:08.680Z,89.7
2017-09-28T05:15:10.409Z,90.1
2017-09-28T05:16:12.170Z,89.7
2017-09-28T05:17:14.543Z,90.0
2017-09-28T05:18:16.241Z,90.2
2017-09-28T05:19:17.944Z,91.0
2017-09-28T05:20:19.645Z,91.1
2017-09-28T05:21:21.367Z,90.7
2017-09-28T05:22:24.080Z,89.8
2017-09-28T05:23:26.550Z,89.9
2017-09-28T05:24:28.275Z,90.3
2017-09-28T05:25:30.027Z,91.2
2017-09-28T05:26:31.738Z,92.1
2017-09-28T05:27:33.417Z,91.6
2017-09-28T05:28:35.130Z,91.8
2017-09-28T05:29:36.828Z,91.6
2017-09-28T05:30:38.556Z,91.0
2017-09-28T05:31:40.273Z,92.2
2017-09-28T05:32:41.983Z,91.6
2017-09-28T05:33:43.673Z,91.7
2017-09-28T05:34:45.365Z,91.0
2017-09-28T05:35:47.065Z,92.0
2017-09-28T05:36:48.786Z,91.7
2017-09-28T05:37:50.437Z,91.3
2017-09-28T05:38:52.156Z,91.3
2017-09-28T05:39:53.855Z,92.2
2017-09-28T05:40:55.538Z,92.2
2017-09-28T05:41:57.253Z,91.5
2017-09-28T05:42:58.948Z,91.2
2017-09-28T05:44:01.563Z,90.6
2017-09-28T05:45:03.258Z,90.4
2017-09-28T05:46:04.958Z,91.6
2017-09-28T05:47:06.651Z,91.1
2017-09-28T05:48:08.346Z,91.5
2017-09-28T05:49:10.067Z,91.6
2017-09-28T05:50:11.773Z,91.6
2017-09-28T05:51:13.450Z,91.4
2017-09-28T05:52:16.079Z,91.1
2017-09-28T05:53:17.764Z,91.0
2017-09-28T05:54:20.031Z,91.6
2017-09-28T05:55:21.748Z,90.5
2017-09-28T05:56:23.415Z,91.5
2017-09-28T05:57:25.143Z,91.6
2017-09-28T05:58:26.816Z,91.1
2017-09-28T05:59:28.515Z,92.1
2017-09-28T06:00:30.199Z,92.3
2017-09-28T06:01:31.881Z,91.8
2017-09-28T06:02:33.629Z,92.2
2017-09-28T06:03:35.286Z,92.2
2017-09-28T06:04:36.994Z,91.5
2017-09-28T06:05:38.681Z,91.3
2017-09-28T06:06:40.383Z,91.9
2017-09-28T06:07:42.090Z,92.0
2017-09-28T06:08:43.831Z,92.3
2017-09-28T06:09:45.551Z,91.5
2017-09-28T06:10:47.229Z,92.1
2017-09-28T06:11:49.585Z,92.2
2017-09-28T06:12:51.328Z,91.4
2017-09-28T06:13:52.997Z,91.1
2017-09-28T06:14:54.682Z,90.9
2017-09-28T06:15:56.373Z,90.8
2017-09-28T06:16:58.111Z,90.5
2017-09-28T06:17:59.819Z,90.6
2017-09-28T06:19:01.488Z,90.5
2017-09-28T06:20:03.216Z,90.8
2017-09-28T06:21:04.908Z,91.1
2017-09-28T06:22:06.609Z,90.2
2017-09-28T06:23:08.288Z,90.5
2017-09-28T06:24:10.596Z,90.6
2017-09-28T06:25:12.277Z,91.8
2017-09-28T06:26:13.978Z,91.4
2017-09-28T06:27:15.683Z,92.7
2017-09-28T06:28:17.364Z,92.2
2017-09-28T06:29:19.054Z,91.6
2017-09-28T06:30:20.729Z,91.7
2017-09-28T06:31:22.415Z,92.3
2017-09-28T06:32:24.119Z,92.4
2017-09-28T06:33:25.802Z,91.2
2017-09-28T06:34:27.515Z,92.2
2017-09-28T06:35:30.058Z,92.3
2017-09-28T06:36:31.776Z,92.3
2017-09-28T06:37:33.500Z,92.2
2017-09-28T06:38:35.173Z,91.2
2017-09-28T06:39:36.878Z,91.4
2017-09-28T06:40:38.567Z,91.6
2017-09-28T06:41:40.253Z,91.3
2017-09-28T06:42:41.959Z,91.8
2017-09-28T06:43:43.667Z,91.1
2017-09-28T06:44:45.331Z,92.2
2017-09-28T06:45:47.032Z,91.6
2017-09-28T06:46:48.785Z,90.5
2017-09-28T06:47:50.506Z,89.1
2017-09-28T06:48:52.233Z,89.4
2017-09-28T06:49:54.023Z,89.3
2017-09-28T06:50:56.582Z,89.2
2017-09-28T06:51:58.286Z,88.8
2017-09-28T06:53:00.035Z,89.5
2017-09-28T06:54:01.745Z,89.8
2017-09-28T06:55:03.460Z,89.2
2017-09-28T06:56:05.183Z,88.9
2017-09-28T06:57:06.846Z,89.8
2017-09-28T06:58:08.562Z,89.8
2017-09-28T06:59:10.259Z,90.3
2017-09-28T07:00:11.954Z,90.6
2017-09-28T07:01:13.651Z,89.8
2017-09-28T07:02:15.369Z,89.9
2017-09-28T07:03:17.085Z,89.6
2017-09-28T07:04:18.776Z,88.6
2017-09-28T07:05:20.521Z,89.2
2017-09-28T07:06:22.228Z,89.4
2017-09-28T07:07:23.915Z,89.8
2017-09-28T07:08:25.669Z,89.8
2017-09-28T07:09:27.373Z,89.0
2017-09-28T07:10:29.072Z,89.1
2017-09-28T07:11:30.785Z,89.3
2017-09-28T07:12:32.466Z,89.1
2017-09-28T07:13:34.135Z,89.2
2017-09-28T07:14:35.813Z,88.6
2017-09-28T07:15:37.507Z,89.1
2017-09-28T07:16:39.163Z,89.7
2017-09-28T07:17:40.955Z,89.4
2017-09-28T07:18:42.637Z,89.4
2017-09-28T07:19:44.378Z,88.6
2017-09-28T07:20:46.063Z,89.1
2017-09-28T07:21:47.786Z,89.8
2017-09-28T07:22:49.497Z,89.0
2017-09-28T07:23:51.200Z,89.4
2017-09-28T07:24:52.902Z,89.8
2017-09-28T07:25:54.642Z,89.8
2017-09-28T07:26:56.308Z,89.0
2017-09-28T07:27:58.006Z,89.1
2017-09-28T07:28:59.722Z,89.8
2017-09-28T07:30:01.414Z,90.3
2017-09-28T07:31:03.108Z,89.9
2017-09-28T07:32:04.872Z,89.7
2017-09-28T07:33:06.592Z,88.8
2017-09-28T07:34:08.264Z,88.5
2017-09-28T07:35:09.966Z,88.2
2017-09-28T07:36:12.617Z,88.1
2017-09-28T07:37:14.421Z,88.8
2017-09-28T07:38:17.114Z,88.2
2017-09-28T07:39:18.769Z,88.2
2017-09-28T07:40:20.537Z,87.9
2017-09-28T07:41:22.334Z,87.3
2017-09-28T07:42:24.045Z,86.9
2017-09-28T07:43:25.756Z,86.6
2017-09-28T07:44:27.444Z,87.3
2017-09-28T07:45:29.126Z,87.1
2017-09-28T07:46:30.814Z,86.9
2017-09-28T07:47:32.509Z,87.0
2017-09-28T07:48:34.195Z,87.2
2017-09-28T07:49:35.871Z,87.2
2017-09-28T07:50:37.564Z,86.9
2017-09-28T07:51:39.288Z,86.6
2017-09-28T07:52:41.008Z,86.1
2017-09-28T07:53:42.697Z,86.1
2017-09-28T07:54:44.407Z,86.9
2017-09-28T07:55:46.118Z,86.5
2017-09-28T07:56:47.858Z,87.0
2017-09-28T07:57:49.593Z,86.9
2017-09-28T07:58:51.336Z,86.4
2017-09-28T07:59:53.026Z,86.9
2017-09-28T08:00:54.716Z,86.5
2017-09-28T08:01:56.425Z,86.2
2017-09-28T08:02:58.112Z,86.3
2017-09-28T08:03:59.847Z,86.7
2017-09-28T08:05:01.562Z,85.9
2017-09-28T08:06:03.250Z,85.9
2017-09-28T08:07:04.959Z,85.4
2017-09-28T08:08:06.638Z,85.3
2017-09-28T08:09:08.393Z,86.3
2017-09-28T08:10:10.088Z,85.4
2017-09-28T08:11:11.788Z,85.3
2017-09-28T08:12:13.509Z,84.8
2017-09-28T08:13:15.184Z,84.2
2017-09-28T08:14:16.927Z,84.9
2017-09-28T08:15:18.636Z,84.9
2017-09-28T08:16:20.368Z,84.8
2017-09-28T08:17:22.088Z,84.6
2017-09-28T08:18:23.746Z,84.3
2017-09-28T08:19:25.460Z,83.8
2017-09-28T08:20:27.183Z,84.0
2017-09-28T08:21:28.937Z,83.1
2017-09-28T08:22:30.657Z,83.1
2017-09-28T08:23:32.354Z,84.2
2017-09-28T08:24:34.000Z,84.1
2017-09-28T08:25:35.762Z,83.1
2017-09-28T08:26:37.564Z,82.3
2017-09-28T08:27:39.285Z,81.8
2017-09-28T08:28:40.970Z,81.9
2017-09-28T08:29:43.849Z,81.9
2017-09-28T08:30:45.566Z,81.7
2017-09-28T08:31:47.331Z,82.6
2017-09-28T08:32:49.030Z,83.5
2017-09-28T08:33:50.726Z,84.3
2017-09-28T08:34:52.454Z,83.4
2017-09-28T08:35:54.164Z,83.7
2017-09-28T08:36:56.158Z,82.6
2017-09-28T08:37:58.111Z,83.6
2017-09-28T08:38:59.939Z,83.6
2017-09-28T08:40:02.427Z,83.2
2017-09-28T08:41:04.167Z,82.8
2017-09-28T08:42:05.854Z,83.8
2017-09-28T08:43:07.557Z,84.2
2017-09-28T08:44:09.261Z,83.8
2017-09-28T08:45:10.974Z,84.6
2017-09-28T08:46:13.704Z,84.0
2017-09-28T08:47:15.447Z,84.3
2017-09-28T08:48:17.171Z,83.9
2017-09-28T08:49:18.871Z,84.1
2017-09-28T08:50:20.560Z,84.6
2017-09-28T08:51:22.257Z,84.6
2017-09-28T08:52:23.984Z,84.2
2017-09-28T08:53:25.687Z,83.6
2017-09-28T08:54:27.446Z,84.3
2017-09-28T08:55:29.180Z,84.3
2017-09-28T08:56:30.907Z,83.0
2017-09-28T08:57:32.644Z,84.0
2017-09-28T08:58:34.368Z,82.8
2017-09-28T08:59:36.068Z,81.3
2017-09-28T09:00:37.787Z,80.8
2017-09-28T09:01:39.517Z,79.8
2017-09-28T09:02:41.512Z,80.3
2017-09-28T09:03:43.191Z,80.1
2017-09-28T09:04:45.049Z,79.9
2017-09-28T09:05:46.814Z,79.4
2017-09-28T09:06:48.503Z,79.6
2017-09-28T09:07:50.197Z,79.2
2017-09-28T09:08:51.999Z,78.7
2017-09-28T09:09:53.769Z,78.7
2017-09-28T09:10:55.646Z,79.0
2017-09-28T09:11:57.314Z,78.9
2017-09-28T09:12:59.198Z,78.7
2017-09-28T09:14:01.007Z,79.1
2017-09-28T09:15:02.894Z,78.9
2017-09-28T09:16:04.812Z,78.7
2017-09-28T09:17:06.973Z,78.0
2017-09-28T09:18:08.928Z,78.4
2017-09-28T09:19:11.656Z,77.9
2017-09-28T09:20:13.620Z,78.1
2017-09-28T09:21:16.523Z,78.1
2017-09-28T09:22:18.295Z,78.2
2017-09-28T09:23:20.105Z,78.9
2017-09-28T09:24:21.821Z,78.6
2017-09-28T09:25:23.566Z,78.2
2017-09-28T09:26:25.319Z,78.0
2017-09-28T09:27:27.400Z,77.9
2017-09-28T09:28:29.155Z,76.9
2017-09-28T09:29:30.979Z,77.6
2017-09-28T09:30:32.728Z,76.7
2017-09-28T09:31:34.467Z,76.4
2017-09-28T09:32:36.743Z,76.1
2017-09-28T09:33:38.572Z,75.8
2017-09-28T09:34:41.098Z,75.2
2017-09-28T09:35:42.903Z,75.0
2017-09-28T09:36:44.640Z,74.3
2017-09-28T09:37:46.475Z,73.8
2017-09-28T09:38:48.377Z,73.5
2017-09-28T09:39:50.289Z,73.6
2017-09-28T09:40:52.035Z,73.8
2017-09-28T09:41:53.696Z,73.2
2017-09-28T09:42:55.456Z,72.9
2017-09-28T09:43:57.664Z,73.6
2017-09-28T09:44:59.440Z,73.2
2017-09-28T09:46:01.133Z,73.5
2017-09-28T09:47:02.907Z,73.5
2017-09-28T09:48:04.766Z,72.9
2017-09-28T09:49:06.422Z,73.7
2017-09-28T09:50:08.156Z,73.7
2017-09-28T09:51:10.152Z,72.8
2017-09-28T09:52:12.518Z,73.1
2017-09-28T09:53:14.708Z,73.9
2017-09-28T09:54:16.655Z,74.8
2017-09-28T09:55:18.432Z,74.3
2017-09-28T09:56:20.537Z,74.3
2017-09-28T09:57:22.281Z,73.9
2017-09-28T09:58:24.029Z,73.2
2017-09-28T09:59:25.946Z,73.1
2017-09-28T10:00:27.734Z,73.3
2017-09-28T10:01:29.611Z,73.2
2017-09-28T10:02:31.334Z,73.1
2017-09-28T10:03:33.108Z,72.5
2017-09-28T10:04:34.918Z,72.3
2017-09-28T10:05:36.722Z,72.8
2017-09-28T10:06:38.442Z,71.9
2017-09-28T10:07:40.902Z,72.5
2017-09-28T10:08:42.740Z,72.5
2017-09-28T10:09:44.439Z,72.0
2017-09-28T10:10:46.222Z,73.0
2017-09-28T10:11:48.455Z,73.9
2017-09-28T10:12:50.325Z,74.3
2017-09-28T10:13:52.068Z,74.8
2017-09-28T10:14:53.855Z,75.2
2017-09-28T10:15:55.599Z,74.9
2017-09-28T10:16:57.248Z,74.9
2017-09-28T10:17:59.051Z,74.3
2017-09-28T10:19:00.797Z,74.8
2017-09-28T10:20:02.468Z,75.0
2017-09-28T10:21:04.312Z,74.8
2017-09-28T10:22:06.420Z,74.5
2017-09-28T10:23:08.116Z,74.6
2017-09-28T10:24:09.823Z,74.4
2017-09-28T10:25:11.592Z,74.6
2017-09-28T10:26:14.440Z,74.7
2017-09-28T10:27:16.135Z,74.9
2017-09-28T10:28:17.861Z,74.3
2017-09-28T10:29:19.614Z,74.4
2017-09-28T10:30:21.302Z,74.0
2017-09-28T10:31:23.047Z,74.5
2017-09-28T10:32:24.791Z,74.6
2017-09-28T10:33:26.533Z,75.1
2017-09-28T10:34:28.259Z,75.5
2017-09-28T10:35:29.929Z,75.3
2017-09-28T10:36:31.591Z,75.5
2017-09-28T10:37:33.613Z,75.1
2017-09-28T10:38:35.304Z,75.4
2017-09-28T10:39:36.952Z,75.5
2017-09-28T10:40:38.599Z,75.8
2017-09-28T10:41:40.303Z,76.1
2017-09-28T10:42:42.104Z,75.6
2017-09-28T10:43:44.724Z,75.7
2017-09-28T10:44:46.561Z,75.5
2017-09-28T10:45:48.244Z,76.1
2017-09-28T10:46:50.173Z,75.7
2017-09-28T10:47:51.947Z,75.8
2017-09-28T10:48:53.642Z,75.8
2017-09-28T10:49:55.691Z,75.9
2017-09-28T10:50:57.454Z,76.4
2017-09-28T10:51:59.531Z,75.7
2017-09-28T10:53:01.282Z,76.2
2017-09-28T10:54:02.981Z,76.5
2017-09-28T10:55:04.644Z,76.6
2017-09-28T10:56:06.388Z,76.8
2017-09-28T10:57:08.674Z,77.1
2017-09-28T10:58:10.421Z,77.0
2017-09-28T10:59:12.730Z,76.9
2017-09-28T11:00:14.425Z,77.1
2017-09-28T11:01:16.140Z,77.5
2017-09-28T11:02:17.786Z,77.5
2017-09-28T11:03:19.507Z,77.6
2017-09-28T11:04:21.247Z,77.9
2017-09-28T11:05:22.931Z,77.4
2017-09-28T11:06:24.721Z,77.2
2017-09-28T11:07:26.431Z,77.2
2017-09-28T11:08:28.430Z,77.4
2017-09-28T11:09:30.134Z,77.1
2017-09-28T11:10:31.832Z,77.5
2017-09-28T11:11:33.552Z,77.5
2017-09-28T11:12:35.257Z,77.8
2017-09-28T11:13:36.956Z,78.6
2017-09-28T11:14:38.733Z,77.2
2017-09-28T11:15:40.437Z,77.5
2017-09-28T11:16:42.196Z,77.6
2017-09-28T11:17:43.928Z,77.6
2017-09-28T11:18:45.687Z,76.9
2017-09-28T11:19:47.386Z,77.3
2017-09-28T11:20:49.326Z,77.6
2017-09-28T11:21:51.469Z,77.7
2017-09-28T11:22:53.310Z,77.9
2017-09-28T11:23:54.988Z,78.1
2017-09-28T11:24:56.750Z,77.8
2017-09-28T11:25:58.653Z,77.9
2017-09-28T11:27:00.380Z,77.8
2017-09-28T11:28:02.721Z,78.0
2017-09-28T11:29:04.435Z,78.3
2017-09-28T11:30:06.637Z,78.1
2017-09-28T11:31:08.370Z,78.6
2017-09-28T11:32:10.239Z,79.0
2017-09-28T11:33:11.940Z,78.8
2017-09-28T11:34:13.680Z,79.2
2017-09-28T11:35:15.412Z,79.2
2017-09-28T11:36:17.744Z,79.5
2017-09-28T11:37:19.764Z,80.1
2017-09-28T11:38:21.482Z,80.1
2017-09-28T11:39:23.241Z,80.4
2017-09-28T11:40:24.953Z,81.4
2017-09-28T11:41:26.755Z,81.1
2017-09-28T11:42:28.535Z,82.1
2017-09-28T11:43:30.411Z,82.3
2017-09-28T11:44:32.118Z,82.6
2017-09-28T11:45:33.828Z,83.2
2017-09-28T11:46:35.518Z,83.8
2017-09-28T11:47:37.224Z,84.3
2017-09-28T11:48:38.958Z,84.1
2017-09-28T11:49:40.878Z,84.2
2017-09-28T11:50:42.633Z,84.4
2017-09-28T11:51:44.337Z,85.6
2017-09-28T11:52:46.062Z,85.1
2017-09-28T11:53:47.756Z,85.4
2017-09-28T11:54:49.519Z,85.8
2017-09-28T11:55:51.244Z,83.8
2017-09-28T11:56:52.973Z,83.8
2017-09-28T11:57:54.695Z,83.8
2017-09-28T11:58:56.741Z,84.7
2017-09-28T11:59:58.788Z,84.1
2017-09-28T12:01:00.619Z,82.5
2017-09-28T12:02:02.544Z,82.0
2017-09-28T12:03:04.234Z,80.2
2017-09-28T12:04:06.111Z,80.3
2017-09-28T12:05:07.855Z,78.7
2017-09-28T12:06:09.567Z,79.3
2017-09-28T12:07:12.233Z,79.0
2017-09-28T12:08:13.930Z,79.6
2017-09-28T12:09:15.718Z,80.5
2017-09-28T12:10:17.427Z,80.6
2017-09-28T12:11:19.149Z,80.5
2017-09-28T12:12:20.874Z,80.0
2017-09-28T12:13:22.571Z,78.6
2017-09-28T12:14:24.260Z,78.9
2017-09-28T12:15:26.013Z,77.8
2017-09-28T12:16:27.709Z,78.0
2017-09-28T12:17:29.464Z,79.0
2017-09-28T12:18:31.190Z,79.1
2017-09-28T12:19:33.839Z,79.1
2017-09-28T12:20:35.599Z,78.7
2017-09-28T12:21:37.308Z,78.6
2017-09-28T12:22:39.028Z,78.1
2017-09-28T12:23:40.713Z,78.7
2017-09-28T12:24:42.425Z,78.7
2017-09-28T12:25:44.152Z,76.9
2017-09-28T12:26:45.880Z,76.5
2017-09-28T12:27:47.630Z,76.3
2017-09-28T12:28:49.440Z,76.6
2017-09-28T12:29:51.134Z,76.6
2017-09-28T12:30:52.851Z,76.0
2017-09-28T12:31:54.602Z,74.6
2017-09-28T12:32:56.352Z,74.5
2017-09-28T12:33:58.024Z,73.1
2017-09-28T12:35:00.281Z,72.8
2017-09-28T12:36:01.959Z,72.3
2017-09-28T12:37:03.629Z,72.5
2017-09-28T12:38:05.357Z,72.8
2017-09-28T12:39:07.115Z,72.8
2017-09-28T12:40:09.356Z,72.8
2017-09-28T12:41:11.124Z,72.6
2017-09-28T12:42:12.876Z,73.3
2017-09-28T12:43:14.712Z,73.1
2017-09-28T12:44:16.409Z,74.0
2017-09-28T12:45:18.109Z,73.7
2017-09-28T12:46:19.821Z,72.9
2017-09-28T12:47:21.469Z,72.1
2017-09-28T12:48:23.132Z,71.7
2017-09-28T12:49:24.777Z,70.9
2017-09-28T12:50:26.531Z,71.3
2017-09-28T12:51:28.294Z,72.1
2017-09-28T12:52:29.991Z,70.9
2017-09-28T12:53:31.733Z,70.5
2017-09-28T12:54:33.494Z,70.4
2017-09-28T12:55:35.217Z,69.6
2017-09-28T12:56:36.910Z,69.0
2017-09-28T12:57:38.703Z,68.9
2017-09-28T12:58:40.437Z,69.2
2017-09-28T12:59:42.118Z,68.2
2017-09-28T13:00:43.863Z,68.8
2017-09-28T13:01:45.606Z,66.9
2017-09-28T13:02:47.394Z,63.0
2017-09-28T13:03:49.125Z,62.8
2017-09-28T13:04:50.850Z,61.3
2017-09-28T13:05:52.573Z,59.0
2017-09-28T13:06:54.298Z,55.6
2017-09-28T13:07:56.039Z,53.4
2017-09-28T13:08:57.788Z,54.3
2017-09-28T13:09:59.561Z,55.6
2017-09-28T13:11:01.258Z,57.6
2017-09-28T13:12:02.990Z,58.5
2017-09-28T13:13:04.638Z,58.9
2017-09-28T13:14:06.370Z,59.4
2017-09-28T13:15:08.106Z,59.8
2017-09-28T13:16:10.175Z,60.8
2017-09-28T13:17:11.920Z,60.8
2017-09-28T13:18:13.645Z,60.7
2017-09-28T13:19:16.479Z,57.4
2017-09-28T13:20:18.848Z,58.1
2017-09-28T13:21:20.585Z,56.5
2017-09-28T13:22:22.296Z,56.2
2017-09-28T13:23:24.012Z,58.0
2017-09-28T13:24:25.776Z,60.2
2017-09-28T13:25:27.441Z,61.1
2017-09-28T13:26:29.478Z,61.9
2017-09-28T13:27:31.203Z,62.3
2017-09-28T13:28:32.959Z,62.4
2017-09-28T13:29:34.706Z,60.5
2017-09-28T13:30:36.472Z,56.1
2017-09-28T13:31:38.176Z,52.1
2017-09-28T13:32:40.229Z,52.0
2017-09-28T13:33:41.991Z,49.1
2017-09-28T13:34:43.906Z,52.0
2017-09-28T13:35:45.636Z,55.4
2017-09-28T13:36:47.395Z,57.1
2017-09-28T13:37:49.086Z,57.2
2017-09-28T13:38:50.809Z,59.4
2017-09-28T13:39:52.457Z,61.1
2017-09-28T13:40:54.200Z,63.3
2017-09-28T13:41:56.866Z,64.3
2017-09-28T13:42:58.841Z,64.7